Share

Elk City, OK

7:52 AM CDT on April 23, 2014 (GMT -0500)
Clinton-Sherman (KCSM) Elev 1923 ft | 35.34 °N, 99.20 °W | Change Station

Current weather conditions updated 59 minutes ago

Clear
Clear
57 °F
Feels Like 57 °F
N
14
Wind Variable Wind from South
Sunrise 6:55 AM
Sunset 8:17 PM
Moon Last Quarter

Today is forecast to be Warmer than yesterday. Windy with times of sun and clouds.

Pressure 29.83 in
Visibility 9.0 miles
Clouds Clear
Dew Point 52 °F
Humidity 83%
Rainfall 0.00 in
Snow Depth Not available.
UV 0 out of 16
Pollen 9.90 out of 12
Air Quality Not available.
Flu Activity Regional
METAR KCSM 231153Z AUTO 18012KT 9SM CLR 14/11 A2988 RMK AO2 SLP100 T01390111 10167 20139 55002

More Conditions Fewer Conditions

Pressure 29.83 in
Visibility 9.0 miles
Clouds Clear
Dew Point 52 °F
Humidity 83%
Rainfall 0.00 in
Snow Depth Not available.
UV 0 out of 16
Pollen 9.90 out of 12
Air Quality Not available.
Flu Activity Regional
METAR KCSM 231153Z AUTO 18012KT 9SM CLR 14/11 A2988 RMK AO2 SLP100 T01390111 10167 20139 55002

More Conditions Fewer Conditions

10-Day Weather Forecast

Almanac

Astronomy

Apr. 23, 2014 Rise Set
Actual Time 6:55 AM CDT 8:17 PM CDT
Civil Twilight 6:28 AM CDT 8:44 PM CDT
Nautical Twilight 5:56 AM CDT 9:15 PM CDT
Astronomical Twilight 5:23 AM CDT 9:49 PM CDT
Moon 3:14 AM CDT 2:39 PM CDT
Length of Visible Light 14h 15m
Length of Day
13h 22m
Tomorrow will be 2m 1s longer.
Last Quarter, 36% of the Moon is Illuminated
Today
Last Quarter
Apr 29
New
May 6
First Quarter
May 14
Full
May 21
Last Quarter

Today's Extremes

State Highs State Lows

Community

  • Earth Day Spectrum Ove' Blue
    Earth Day Spectrum Ove' Blue
  • April Sunset
    April Sunset
  • Waiting..
    Waiting..
  • Sunset...
    Sunset...
  • Happy outdoor day
    Happy outdoor day

WunderPhotos

Upload Photos

1,704,257 photos uploaded!

Nearby

Snow Depth

Station Depth Elevation
No new snow has been reported.

Coastal Water Temperatures

Place Temperature
No Stations Reporting

Earthquake Activity

City Distance Mag. Time & Date
Enid, Oklahoma 120 miles 2.9 1:11 PM CDT
2014-04-19
Medford, Oklahoma 122 miles 2.9 3:07 AM CDT
2014-04-19
Helena, Oklahoma 109 miles 3.4 6:50 AM CDT
2014-04-17
Minimum magnitude displayed is 2.5.

Nearby Weather Stations

Station Location Temp. Dew Point Humidity Wind Precip. Elev Updated Type
HADS MUNICIPAL AIRPORT NEAR ELK CITY OK, Elk City, OK 59 °F - - North  at  - 0.00 in / hr 1981 ft 7:00 AM CDT MADIS

Show More Stations Show Fewer Stations

What do you think?

We're not finished. Please let us know what you like, what you don't like, and what you are still missing.